createdAt,value
2018-09-13T00:04:00.735Z,85.20
2018-09-13T00:08:59.183Z,84.99
2018-09-13T00:13:56.558Z,85.20
2018-09-13T00:18:53.947Z,86.52
2018-09-13T00:23:54.271Z,85.76
2018-09-13T00:28:53.170Z,86.98
2018-09-13T00:33:50.563Z,87.38
2018-09-13T00:38:47.943Z,88.04
2018-09-13T00:43:46.383Z,87.45
2018-09-13T00:48:46.230Z,87.73
2018-09-13T00:53:44.688Z,88.70
2018-09-13T00:58:42.059Z,89.27
2018-09-13T01:03:39.437Z,89.86
2018-09-13T01:08:36.810Z,89.24
2018-09-13T01:13:34.197Z,89.39
2018-09-13T01:18:31.574Z,89.99
2018-09-13T01:23:28.959Z,89.98
2018-09-13T01:28:26.331Z,90.07
2018-09-13T01:33:23.712Z,90.14
2018-09-13T01:38:21.114Z,90.32
2018-09-13T01:43:20.887Z,90.08
2018-09-13T01:48:18.345Z,89.04
2018-09-13T01:53:15.706Z,89.42
2018-09-13T01:58:13.118Z,89.07
2018-09-13T02:03:10.619Z,88.69
2018-09-13T02:08:07.995Z,90.53
2018-09-13T02:13:05.516Z,87.31
2018-09-13T02:18:02.881Z,88.50
2018-09-13T02:23:00.249Z,88.32
2018-09-13T02:27:58.635Z,87.67
2018-09-13T02:32:55.991Z,87.84
2018-09-13T02:37:53.346Z,88.18
2018-09-13T02:42:50.857Z,87.48
2018-09-13T02:47:48.218Z,87.62
2018-09-13T02:52:45.571Z,88.37
2018-09-13T02:57:42.938Z,88.43
2018-09-13T03:02:40.311Z,89.45
2018-09-13T03:07:37.671Z,88.27
2018-09-13T03:12:35.055Z,88.03
2018-09-13T03:17:32.410Z,88.00
2018-09-13T03:22:29.815Z,87.95
2018-09-13T03:27:27.287Z,88.14
2018-09-13T03:32:24.643Z,88.14
2018-09-13T03:37:21.998Z,87.57
2018-09-13T03:42:19.364Z,87.31
2018-09-13T03:47:16.746Z,88.33
2018-09-13T03:52:14.108Z,89.20
2018-09-13T03:57:11.479Z,88.64
2018-09-13T04:02:08.854Z,89.47
2018-09-13T04:07:06.248Z,89.03
2018-09-13T04:12:03.682Z,89.21
2018-09-13T04:17:01.040Z,89.45
2018-09-13T04:21:58.397Z,89.51
2018-09-13T04:26:55.747Z,89.00
2018-09-13T04:31:53.115Z,89.63
2018-09-13T04:36:50.524Z,89.05
2018-09-13T04:41:47.949Z,88.63
2018-09-13T04:46:45.319Z,88.77
2018-09-13T04:51:42.707Z,90.06
2018-09-13T04:56:40.071Z,89.74
2018-09-13T05:01:39.330Z,90.34
2018-09-13T05:06:36.747Z,88.90
2018-09-13T05:11:34.165Z,89.40
2018-09-13T05:16:31.627Z,88.66
2018-09-13T05:21:29.262Z,89.82
2018-09-13T05:26:26.671Z,89.61
2018-09-13T05:31:24.641Z,88.96
2018-09-13T05:36:22.089Z,89.54
2018-09-13T05:41:19.476Z,89.47
2018-09-13T05:46:16.839Z,89.46
2018-09-13T05:51:14.315Z,89.31
2018-09-13T05:56:11.687Z,89.47
2018-09-13T06:01:09.083Z,89.52
2018-09-13T06:06:06.471Z,90.27
2018-09-13T06:11:03.891Z,89.56
2018-09-13T06:16:01.285Z,89.21
2018-09-13T06:20:58.754Z,88.96
2018-09-13T06:25:56.142Z,89.44
2018-09-13T06:30:53.527Z,88.65
2018-09-13T06:35:50.883Z,89.35
2018-09-13T06:40:48.285Z,88.15
2018-09-13T06:45:45.662Z,89.72
2018-09-13T06:50:43.032Z,89.63
2018-09-13T06:55:40.409Z,89.24
2018-09-13T07:00:38.015Z,88.96
2018-09-13T07:05:35.395Z,88.86
2018-09-13T07:10:35.110Z,89.45
2018-09-13T07:15:32.515Z,88.52
2018-09-13T07:20:29.896Z,89.42
2018-09-13T07:25:27.266Z,88.69
2018-09-13T07:30:24.639Z,90.03
2018-09-13T07:35:22.048Z,89.00
2018-09-13T07:40:20.522Z,90.15
2018-09-13T07:45:17.924Z,89.76
2018-09-13T07:50:15.597Z,88.75
2018-09-13T07:55:12.967Z,89.09
2018-09-13T08:00:10.355Z,88.65
2018-09-13T08:05:07.813Z,87.62
2018-09-13T08:10:06.325Z,87.08
2018-09-13T08:15:03.866Z,87.03
2018-09-13T08:20:01.266Z,87.33
2018-09-13T08:24:58.859Z,88.17
2018-09-13T08:29:56.375Z,87.46
2018-09-13T08:34:54.200Z,88.26
2018-09-13T08:39:53.086Z,87.54
2018-09-13T08:44:50.695Z,85.92
2018-09-13T08:49:48.079Z,83.87
2018-09-13T08:54:45.463Z,83.43
2018-09-13T08:59:42.916Z,82.77
2018-09-13T09:04:40.288Z,84.23
2018-09-13T09:09:42.334Z,84.67
2018-09-13T09:14:39.776Z,81.85
2018-09-13T09:19:37.168Z,82.63
2018-09-13T09:24:34.536Z,82.69
2018-09-13T09:29:31.951Z,81.96
2018-09-13T09:34:29.329Z,79.52
2018-09-13T09:39:33.050Z,80.80
2018-09-13T09:44:30.479Z,79.79
2018-09-13T09:49:27.855Z,75.28
2018-09-13T09:54:25.243Z,79.00
2018-09-13T09:59:22.615Z,79.06
2018-09-13T10:04:20.029Z,80.98
2018-09-13T10:09:23.360Z,80.08
2018-09-13T10:14:20.804Z,78.56
2018-09-13T10:19:23.935Z,79.61
2018-09-13T10:24:26.866Z,79.90
2018-09-13T10:29:29.894Z,80.38
2018-09-13T10:34:32.987Z,80.98
2018-09-13T10:39:42.233Z,78.56
2018-09-13T10:44:45.350Z,75.42
2018-09-13T10:49:48.407Z,74.70
2018-09-13T10:54:45.783Z,74.66
2018-09-13T10:59:44.377Z,75.95
2018-09-13T11:04:41.780Z,77.08
2018-09-13T11:09:47.331Z,78.42
2018-09-13T11:14:51.272Z,77.77
2018-09-13T11:19:48.723Z,75.83
2018-09-13T11:24:46.505Z,76.13
2018-09-13T11:29:44.450Z,75.81
2018-09-13T11:34:42.535Z,78.49
2018-09-13T11:39:49.300Z,78.64
2018-09-13T11:44:46.663Z,77.13
2018-09-13T11:49:44.047Z,78.25
2018-09-13T11:54:41.407Z,77.39
2018-09-13T11:59:38.787Z,75.88
2018-09-13T12:04:36.174Z,75.32
2018-09-13T12:09:36.756Z,78.65
2018-09-13T12:14:34.978Z,74.49
2018-09-13T12:19:36.150Z,75.38
2018-09-13T12:24:43.214Z,74.00
2018-09-13T12:29:46.441Z,75.18
2018-09-13T12:34:47.886Z,74.31
2018-09-13T12:39:53.895Z,75.59
2018-09-13T12:44:56.543Z,75.04
2018-09-13T12:49:57.440Z,75.52
2018-09-13T12:54:58.594Z,73.54
2018-09-13T12:59:59.129Z,71.69
2018-09-13T13:10:14.431Z,73.40
2018-09-13T13:15:13.501Z,70.07
2018-09-13T13:20:16.105Z,68.63
2018-09-13T13:25:15.957Z,68.09
2018-09-13T13:30:16.745Z,67.61
2018-09-13T13:35:17.583Z,64.46
2018-09-13T13:40:17.754Z,67.85
2018-09-13T13:45:15.214Z,68.44
2018-09-13T13:50:12.619Z,69.11
2018-09-13T13:55:10.022Z,67.19
2018-09-13T14:00:07.447Z,65.51
2018-09-13T14:05:04.895Z,63.22
2018-09-13T14:10:03.482Z,65.04
2018-09-13T14:15:00.953Z,65.85
2018-09-13T14:19:58.360Z,62.60
2018-09-13T14:24:55.752Z,62.91
2018-09-13T14:29:53.222Z,62.18
2018-09-13T14:34:50.599Z,62.25
2018-09-13T14:39:57.672Z,59.68
2018-09-13T14:44:55.123Z,60.65
2018-09-13T14:49:52.524Z,63.11
2018-09-13T14:54:49.929Z,62.20
2018-09-13T14:59:47.326Z,65.11
2018-09-13T15:04:44.835Z,64.17
2018-09-13T15:09:45.690Z,63.44
2018-09-13T15:14:43.150Z,63.58
2018-09-13T15:19:40.541Z,62.17
2018-09-13T15:24:38.062Z,62.93
2018-09-13T15:29:35.355Z,63.47
2018-09-13T15:34:32.743Z,64.48
2018-09-13T15:39:33.658Z,64.41
2018-09-13T15:44:31.176Z,63.49
2018-09-13T15:49:28.556Z,63.61
2018-09-13T15:54:25.962Z,64.23
2018-09-13T15:59:23.462Z,65.07
2018-09-13T16:04:20.890Z,64.03
2018-09-13T16:09:19.206Z,65.39
2018-09-13T16:14:17.430Z,65.04
2018-09-13T16:19:14.819Z,66.82
2018-09-13T16:24:12.203Z,66.84
2018-09-13T16:29:09.600Z,66.62
2018-09-13T16:34:07.023Z,66.54
2018-09-13T16:39:24.721Z,68.28
2018-09-13T16:44:27.707Z,67.48
2018-09-13T16:49:25.108Z,67.76
2018-09-13T16:54:22.509Z,67.53
2018-09-13T16:59:19.939Z,66.91
2018-09-13T17:04:17.344Z,68.62
2018-09-13T17:09:16.339Z,68.96
2018-09-13T17:14:13.771Z,69.08
2018-09-13T17:19:11.167Z,69.28
2018-09-13T17:24:09.383Z,71.85
2018-09-13T17:29:06.806Z,72.12
2018-09-13T17:34:04.224Z,72.67
2018-09-13T17:39:01.640Z,74.14
2018-09-13T17:43:59.043Z,74.86
2018-09-13T17:48:56.443Z,76.56
2018-09-13T17:53:53.872Z,78.05
2018-09-13T17:58:51.263Z,79.03
2018-09-13T18:03:48.710Z,79.57
2018-09-13T18:08:46.162Z,78.28
2018-09-13T18:13:43.571Z,79.21
2018-09-13T18:18:41.014Z,81.13
2018-09-13T18:23:38.460Z,82.09
2018-09-13T18:28:35.802Z,83.33
2018-09-13T18:33:33.175Z,83.80
2018-09-13T18:38:32.411Z,83.89
2018-09-13T18:43:29.790Z,84.86
2018-09-13T18:48:27.203Z,85.39
2018-09-13T18:53:24.675Z,85.65
2018-09-13T18:58:22.121Z,85.21
2018-09-13T19:03:19.507Z,86.08
2018-09-13T19:08:16.879Z,87.03
2018-09-13T19:13:14.313Z,87.24
2018-09-13T19:18:11.680Z,87.45
2018-09-13T19:23:09.054Z,87.91
2018-09-13T19:28:06.431Z,88.62
2018-09-13T19:33:03.800Z,86.29
2018-09-13T19:38:01.167Z,88.06
2018-09-13T19:42:58.591Z,88.81
2018-09-13T19:47:55.960Z,89.99
2018-09-13T19:52:53.327Z,89.99
2018-09-13T19:57:50.694Z,87.98
2018-09-13T20:02:48.115Z,88.63
2018-09-13T20:07:45.495Z,89.62
2018-09-13T20:12:42.907Z,90.25
2018-09-13T20:17:40.282Z,89.42
2018-09-13T20:22:37.651Z,90.13
2018-09-13T20:27:35.055Z,90.54
2018-09-13T20:32:32.455Z,91.52
2018-09-13T20:37:29.814Z,88.62
2018-09-13T20:42:27.195Z,89.82
2018-09-13T20:47:25.915Z,91.21
2018-09-13T20:52:23.498Z,90.54
2018-09-13T20:57:20.884Z,91.95
2018-09-13T21:02:18.247Z,92.29
2018-09-13T21:07:15.668Z,91.79
2018-09-13T21:12:13.070Z,91.72
2018-09-13T21:17:10.524Z,92.96
2018-09-13T21:22:08.823Z,93.64
2018-09-13T21:27:06.192Z,93.12
2018-09-13T21:32:03.599Z,93.31
2018-09-13T21:37:00.963Z,93.78
2018-09-13T21:41:58.680Z,93.38
2018-09-13T21:46:56.100Z,93.89
2018-09-13T21:51:53.522Z,93.52
2018-09-13T21:56:50.890Z,93.37
2018-09-13T22:01:48.251Z,93.29
2018-09-13T22:06:45.614Z,94.39
2018-09-13T22:11:43.139Z,94.13
2018-09-13T22:16:40.507Z,93.32
2018-09-13T22:21:37.883Z,93.98
2018-09-13T22:26:35.692Z,93.33
2018-09-13T22:31:33.936Z,93.89
2018-09-13T22:36:31.334Z,93.52
2018-09-13T22:41:28.723Z,92.92
2018-09-13T22:46:26.206Z,93.94
2018-09-13T22:51:23.585Z,93.80
2018-09-13T22:56:20.975Z,93.54
2018-09-13T23:01:18.370Z,93.90
2018-09-13T23:06:15.745Z,94.13
2018-09-13T23:11:13.130Z,94.03
2018-09-13T23:16:10.602Z,93.68
2018-09-13T23:21:07.883Z,93.73
2018-09-13T23:26:05.260Z,94.03
2018-09-13T23:31:02.624Z,94.11
2018-09-13T23:35:59.999Z,94.33
2018-09-13T23:40:57.447Z,94.33
2018-09-13T23:45:54.820Z,94.24
2018-09-13T23:50:52.190Z,94.67
2018-09-13T23:55:49.567Z,93.71
